SIA128 WSSS-WMKK
Flight info
| Callsign | SIA128 |
|---|---|
| Flight time | 0h 40m |
| Altitude | 24000 |
| Route | MASBO3A MASBO A457 GUPTA GUPTA2J |
| Aircraft | B38M/M-SDE1FGHILORVWXY/HB1 |
Departure
| Time | 2026-05-05 10:52 |
|---|---|
| Airport | Singapore Changi Airport (WSSS) |
Arrival
| Time | 2026-05-05 11:32 |
|---|---|
| Airport | Kuala Lumpur International Airport (WMKK) |
| Time | Latitude | Longitude | Altitude | Speed | Heading |
|---|---|---|---|---|---|
| 2026-05-05 10:49 | 1.35400 | 103.98247 | 33 ft | 21 kts | 198° |
| 2026-05-05 10:49 | 1.35265 | 103.98193 | 33 ft | 21 kts | 201° |
| 2026-05-05 10:49 | 1.35127 | 103.98136 | 33 ft | 22 kts | 201° |
| 2026-05-05 10:50 | 1.34986 | 103.98077 | 33 ft | 22 kts | 201° |
| 2026-05-05 10:50 | 1.34917 | 103.98040 | 33 ft | 3 kts | 265° |
| 2026-05-05 10:50 | 1.34925 | 103.98017 | 33 ft | 5 kts | 294° |
| 2026-05-05 10:50 | 1.34956 | 103.97949 | 33 ft | 17 kts | 294° |
| 2026-05-05 10:51 | 1.35049 | 103.97826 | 33 ft | 29 kts | 350° |
| 2026-05-05 10:51 | 1.35339 | 103.97932 | 33 ft | 77 kts | 23° |
| 2026-05-05 10:51 | 1.36059 | 103.98235 | 33 ft | 146 kts | 24° |
| 2026-05-05 10:51 | 1.37170 | 103.98712 | 127 ft | 195 kts | 26° |
| 2026-05-05 10:52 | 1.38472 | 103.99391 | 578 ft | 226 kts | 30° |
| 2026-05-05 10:52 | 1.39843 | 104.00242 | 1371 ft | 243 kts | 36° |
| 2026-05-05 10:52 | 1.41097 | 104.01442 | 2236 ft | 260 kts | 50° |
| 2026-05-05 10:52 | 1.42285 | 104.02870 | 3115 ft | 276 kts | 51° |
| 2026-05-05 10:53 | 1.43592 | 104.04201 | 3909 ft | 277 kts | 34° |
| 2026-05-05 10:53 | 1.45357 | 104.04993 | 4416 ft | 281 kts | 15° |
| 2026-05-05 10:53 | 1.47275 | 104.05344 | 4744 ft | 281 kts | 1° |
| 2026-05-05 10:53 | 1.49243 | 104.05253 | 5088 ft | 283 kts | 355° |
| 2026-05-05 10:54 | 1.51239 | 104.05035 | 5403 ft | 297 kts | 346° |
| 2026-05-05 10:54 | 1.53238 | 104.04316 | 5713 ft | 314 kts | 336° |
| 2026-05-05 10:54 | 1.55259 | 104.03393 | 6029 ft | 323 kts | 335° |
| 2026-05-05 10:54 | 1.57317 | 104.02442 | 6389 ft | 328 kts | 335° |
| 2026-05-05 10:55 | 1.59400 | 104.01479 | 6779 ft | 331 kts | 335° |
| 2026-05-05 10:55 | 1.61495 | 104.00510 | 7170 ft | 333 kts | 335° |
| 2026-05-05 10:55 | 1.63579 | 103.99549 | 7575 ft | 336 kts | 335° |
| 2026-05-05 10:55 | 1.65714 | 103.98577 | 7985 ft | 338 kts | 335° |
| 2026-05-05 10:56 | 1.67858 | 103.97601 | 8399 ft | 340 kts | 335° |
| 2026-05-05 10:56 | 1.69951 | 103.96486 | 8840 ft | 341 kts | 324° |
| 2026-05-05 10:56 | 1.71888 | 103.95083 | 9391 ft | 345 kts | 323° |
| 2026-05-05 10:56 | 1.73792 | 103.93603 | 9922 ft | 348 kts | 315° |
| 2026-05-05 10:57 | 1.75397 | 103.91777 | 10429 ft | 352 kts | 308° |
| 2026-05-05 10:57 | 1.76927 | 103.89851 | 10943 ft | 356 kts | 308° |
| 2026-05-05 10:57 | 1.78476 | 103.87891 | 11458 ft | 362 kts | 308° |
| 2026-05-05 10:57 | 1.80050 | 103.85896 | 11999 ft | 368 kts | 308° |
| 2026-05-05 10:58 | 1.81647 | 103.83869 | 12547 ft | 374 kts | 308° |
| 2026-05-05 10:58 | 1.83264 | 103.81816 | 13101 ft | 378 kts | 308° |
| 2026-05-05 10:58 | 1.84897 | 103.79739 | 13657 ft | 382 kts | 308° |
| 2026-05-05 10:58 | 1.86543 | 103.77638 | 14159 ft | 385 kts | 308° |
| 2026-05-05 10:59 | 1.88195 | 103.75525 | 14671 ft | 387 kts | 308° |
| 2026-05-05 10:59 | 1.89708 | 103.73288 | 15158 ft | 390 kts | 294° |
| 2026-05-05 10:59 | 1.90362 | 103.70680 | 15768 ft | 388 kts | 275° |
| 2026-05-05 10:59 | 1.90697 | 103.68010 | 16388 ft | 386 kts | 279° |
| 2026-05-05 11:00 | 1.91128 | 103.65401 | 17015 ft | 384 kts | 279° |
| 2026-05-05 11:00 | 1.91574 | 103.62776 | 17604 ft | 384 kts | 279° |
| 2026-05-05 11:00 | 1.92032 | 103.60147 | 18167 ft | 384 kts | 280° |
| 2026-05-05 11:00 | 1.92493 | 103.57523 | 18667 ft | 383 kts | 280° |
| 2026-05-05 11:01 | 1.92952 | 103.54904 | 19176 ft | 382 kts | 280° |
| 2026-05-05 11:01 | 1.93409 | 103.52294 | 19678 ft | 380 kts | 280° |
| 2026-05-05 11:01 | 1.93863 | 103.49697 | 20207 ft | 379 kts | 280° |
| 2026-05-05 11:01 | 1.94317 | 103.47108 | 20694 ft | 379 kts | 280° |
| 2026-05-05 11:02 | 1.94779 | 103.44477 | 20855 ft | 390 kts | 280° |
| 2026-05-05 11:02 | 1.95260 | 103.41753 | 20811 ft | 405 kts | 280° |
| 2026-05-05 11:02 | 1.95757 | 103.38937 | 20807 ft | 417 kts | 280° |
| 2026-05-05 11:02 | 1.96266 | 103.36047 | 20809 ft | 427 kts | 280° |
| 2026-05-05 11:03 | 1.96784 | 103.33097 | 20813 ft | 432 kts | 280° |
| 2026-05-05 11:03 | 1.97303 | 103.30137 | 20822 ft | 433 kts | 280° |
| 2026-05-05 11:03 | 1.97824 | 103.27166 | 20821 ft | 434 kts | 280° |
| 2026-05-05 11:03 | 1.98336 | 103.24237 | 20819 ft | 434 kts | 280° |
| 2026-05-05 11:04 | 1.98858 | 103.21260 | 20818 ft | 434 kts | 280° |
| 2026-05-05 11:04 | 1.99378 | 103.18287 | 20817 ft | 434 kts | 280° |
| 2026-05-05 11:04 | 1.99898 | 103.15318 | 20819 ft | 434 kts | 280° |
| 2026-05-05 11:04 | 2.00418 | 103.12344 | 20813 ft | 434 kts | 280° |
| 2026-05-05 11:05 | 2.00938 | 103.09371 | 20817 ft | 434 kts | 280° |
| 2026-05-05 11:05 | 2.01459 | 103.06394 | 20821 ft | 434 kts | 280° |
| 2026-05-05 11:05 | 2.01979 | 103.03422 | 20825 ft | 435 kts | 280° |
| 2026-05-05 11:05 | 2.02500 | 103.00444 | 20827 ft | 435 kts | 280° |
| 2026-05-05 11:06 | 2.03021 | 102.97465 | 20824 ft | 435 kts | 280° |
| 2026-05-05 11:06 | 2.03542 | 102.94489 | 20820 ft | 435 kts | 280° |
| 2026-05-05 11:06 | 2.04063 | 102.91512 | 20822 ft | 435 kts | 280° |
| 2026-05-05 11:06 | 2.04618 | 102.88544 | 20809 ft | 434 kts | 285° |
| 2026-05-05 11:07 | 2.05744 | 102.85803 | 20828 ft | 432 kts | 298° |
| 2026-05-05 11:07 | 2.07091 | 102.83102 | 20807 ft | 433 kts | 296° |
| 2026-05-05 11:07 | 2.08411 | 102.80396 | 20824 ft | 434 kts | 296° |
| 2026-05-05 11:07 | 2.09733 | 102.77688 | 20820 ft | 434 kts | 296° |
| 2026-05-05 11:08 | 2.11056 | 102.74977 | 20820 ft | 434 kts | 296° |
| 2026-05-05 11:08 | 2.12379 | 102.72267 | 20820 ft | 434 kts | 296° |
| 2026-05-05 11:08 | 2.13701 | 102.69558 | 20823 ft | 434 kts | 296° |
| 2026-05-05 11:08 | 2.15022 | 102.66850 | 20820 ft | 433 kts | 296° |
| 2026-05-05 11:09 | 2.16344 | 102.64144 | 20822 ft | 433 kts | 297° |
| 2026-05-05 11:09 | 2.17685 | 102.61441 | 20821 ft | 433 kts | 297° |
| 2026-05-05 11:09 | 2.19027 | 102.58745 | 20822 ft | 433 kts | 297° |
| 2026-05-05 11:09 | 2.20479 | 102.56106 | 20807 ft | 432 kts | 306° |
| 2026-05-05 11:10 | 2.22284 | 102.53712 | 20836 ft | 432 kts | 309° |
| 2026-05-05 11:10 | 2.24142 | 102.51351 | 20826 ft | 432 kts | 309° |
| 2026-05-05 11:10 | 2.26003 | 102.48989 | 20825 ft | 432 kts | 309° |
| 2026-05-05 11:10 | 2.27863 | 102.46629 | 20825 ft | 432 kts | 309° |
| 2026-05-05 11:11 | 2.29700 | 102.44300 | 20823 ft | 432 kts | 309° |
| 2026-05-05 11:11 | 2.31562 | 102.41937 | 20823 ft | 432 kts | 309° |
| 2026-05-05 11:11 | 2.33421 | 102.39579 | 20824 ft | 432 kts | 309° |
| 2026-05-05 11:11 | 2.35282 | 102.37218 | 20821 ft | 432 kts | 309° |
| 2026-05-05 11:12 | 2.37140 | 102.34860 | 20821 ft | 432 kts | 309° |
| 2026-05-05 11:12 | 2.38398 | 102.33264 | 20820 ft | 432 kts | 309° |
| 2026-05-05 11:12 | 2.40254 | 102.30908 | 20707 ft | 431 kts | 309° |
| 2026-05-05 11:12 | 2.42108 | 102.28554 | 20552 ft | 430 kts | 309° |
| 2026-05-05 11:13 | 2.44553 | 102.25448 | 20346 ft | 429 kts | 309° |
| 2026-05-05 11:13 | 2.45798 | 102.23866 | 20240 ft | 428 kts | 309° |
| 2026-05-05 11:13 | 2.48230 | 102.20773 | 20036 ft | 426 kts | 309° |
| 2026-05-05 11:13 | 2.49444 | 102.19229 | 19937 ft | 429 kts | 309° |
| 2026-05-05 11:14 | 2.51316 | 102.16847 | 19660 ft | 438 kts | 309° |
| 2026-05-05 11:14 | 2.53208 | 102.14438 | 19370 ft | 442 kts | 309° |
| 2026-05-05 11:14 | 2.55107 | 102.12016 | 19088 ft | 442 kts | 309° |
| 2026-05-05 11:14 | 2.56997 | 102.09605 | 18813 ft | 440 kts | 309° |
| 2026-05-05 11:15 | 2.58888 | 102.07194 | 18536 ft | 439 kts | 309° |
| 2026-05-05 11:15 | 2.60768 | 102.04794 | 18274 ft | 437 kts | 309° |
| 2026-05-05 11:15 | 2.62635 | 102.02409 | 17989 ft | 435 kts | 309° |
| 2026-05-05 11:15 | 2.64502 | 102.00026 | 17687 ft | 433 kts | 309° |
| 2026-05-05 11:16 | 2.66401 | 101.97754 | 17368 ft | 430 kts | 314° |
| 2026-05-05 11:16 | 2.68464 | 101.95592 | 17051 ft | 428 kts | 315° |
| 2026-05-05 11:16 | 2.70555 | 101.93431 | 16976 ft | 426 kts | 315° |
| 2026-05-05 11:16 | 2.72593 | 101.91323 | 16958 ft | 427 kts | 315° |
| 2026-05-05 11:17 | 2.74657 | 101.89187 | 16961 ft | 427 kts | 315° |
| 2026-05-05 11:17 | 2.76725 | 101.87047 | 16790 ft | 427 kts | 315° |
| 2026-05-05 11:17 | 2.78777 | 101.84925 | 16420 ft | 423 kts | 315° |
| 2026-05-05 11:17 | 2.80819 | 101.82820 | 16056 ft | 421 kts | 315° |
| 2026-05-05 11:18 | 2.82854 | 101.80724 | 15682 ft | 419 kts | 315° |
| 2026-05-05 11:18 | 2.84879 | 101.78643 | 15332 ft | 416 kts | 315° |
| 2026-05-05 11:18 | 2.86895 | 101.76570 | 14966 ft | 410 kts | 315° |
| 2026-05-05 11:18 | 2.88935 | 101.74640 | 14606 ft | 396 kts | 322° |
| 2026-05-05 11:19 | 2.91113 | 101.73106 | 14548 ft | 371 kts | 330° |
| 2026-05-05 11:19 | 2.93336 | 101.71918 | 14292 ft | 356 kts | 335° |
| 2026-05-05 11:19 | 2.95576 | 101.70860 | 13549 ft | 357 kts | 339° |
| 2026-05-05 11:19 | 2.97990 | 101.70269 | 12567 ft | 359 kts | 354° |
| 2026-05-05 11:20 | 3.00424 | 101.70483 | 11733 ft | 357 kts | 21° |
| 2026-05-05 11:20 | 3.02441 | 101.71766 | 11410 ft | 338 kts | 47° |
| 2026-05-05 11:20 | 3.03674 | 101.73685 | 11164 ft | 320 kts | 62° |
| 2026-05-05 11:20 | 3.04747 | 101.75582 | 10913 ft | 307 kts | 59° |
| 2026-05-05 11:21 | 3.06128 | 101.77127 | 10604 ft | 295 kts | 32° |
| 2026-05-05 11:21 | 3.08029 | 101.77731 | 10295 ft | 285 kts | 0° |
| 2026-05-05 11:21 | 3.09905 | 101.77271 | 10004 ft | 276 kts | 333° |
| 2026-05-05 11:21 | 3.11561 | 101.76331 | 9729 ft | 273 kts | 330° |
| 2026-05-05 11:22 | 3.13186 | 101.75365 | 9416 ft | 271 kts | 328° |
| 2026-05-05 11:22 | 3.14474 | 101.74047 | 9037 ft | 266 kts | 296° |
| 2026-05-05 11:22 | 3.14771 | 101.72279 | 8668 ft | 259 kts | 257° |
| 2026-05-05 11:22 | 3.13884 | 101.70783 | 8293 ft | 253 kts | 215° |
| 2026-05-05 11:23 | 3.12263 | 101.70266 | 7934 ft | 246 kts | 174° |
| 2026-05-05 11:23 | 3.10545 | 101.70454 | 7662 ft | 252 kts | 172° |
| 2026-05-05 11:23 | 3.08812 | 101.70652 | 7361 ft | 254 kts | 173° |
| 2026-05-05 11:23 | 3.07061 | 101.70508 | 7030 ft | 254 kts | 195° |
| 2026-05-05 11:24 | 3.05511 | 101.69697 | 6685 ft | 254 kts | 222° |
| 2026-05-05 11:24 | 3.04458 | 101.68273 | 6142 ft | 258 kts | 244° |
| 2026-05-05 11:24 | 3.03711 | 101.66681 | 5838 ft | 247 kts | 246° |
| 2026-05-05 11:24 | 3.03043 | 101.65101 | 5309 ft | 246 kts | 255° |
| 2026-05-05 11:25 | 3.02861 | 101.63417 | 4797 ft | 244 kts | 275° |
| 2026-05-05 11:25 | 3.03214 | 101.61794 | 4416 ft | 236 kts | 294° |
| 2026-05-05 11:25 | 3.03998 | 101.60370 | 3936 ft | 230 kts | 309° |
| 2026-05-05 11:25 | 3.05215 | 101.59348 | 3222 ft | 229 kts | 329° |
| 2026-05-05 11:26 | 3.06400 | 101.58428 | 3400 ft | 209 kts | 307° |
| 2026-05-05 11:26 | 3.06925 | 101.57113 | 3535 ft | 207 kts | 276° |
| 2026-05-05 11:26 | 3.06520 | 101.55776 | 3536 ft | 207 kts | 224° |
| 2026-05-05 11:26 | 3.05154 | 101.55325 | 3491 ft | 217 kts | 173° |
| 2026-05-05 11:27 | 3.03771 | 101.55800 | 3961 ft | 211 kts | 154° |
| 2026-05-05 11:27 | 3.02405 | 101.56400 | 3734 ft | 214 kts | 157° |
| 2026-05-05 11:27 | 3.01042 | 101.56934 | 3817 ft | 212 kts | 158° |
| 2026-05-05 11:27 | 2.99604 | 101.57487 | 3944 ft | 231 kts | 158° |
| 2026-05-05 11:28 | 2.98045 | 101.58089 | 3908 ft | 249 kts | 158° |
| 2026-05-05 11:28 | 2.96380 | 101.58734 | 3898 ft | 263 kts | 158° |
| 2026-05-05 11:28 | 2.94657 | 101.59402 | 3895 ft | 269 kts | 158° |
| 2026-05-05 11:28 | 2.92945 | 101.60172 | 3903 ft | 270 kts | 152° |
| 2026-05-05 11:29 | 2.91302 | 101.61054 | 3888 ft | 277 kts | 149° |
| 2026-05-05 11:29 | 2.89680 | 101.62030 | 3768 ft | 266 kts | 147° |
| 2026-05-05 11:29 | 2.88169 | 101.63025 | 3335 ft | 252 kts | 144° |
| 2026-05-05 11:29 | 2.86803 | 101.63998 | 2849 ft | 232 kts | 144° |
| 2026-05-05 11:30 | 2.85540 | 101.64919 | 2376 ft | 217 kts | 144° |
| 2026-05-05 11:30 | 2.84330 | 101.65786 | 1812 ft | 210 kts | 147° |
| 2026-05-05 11:30 | 2.83141 | 101.66598 | 1338 ft | 207 kts | 147° |
| 2026-05-05 11:30 | 2.81926 | 101.67385 | 904 ft | 206 kts | 144° |
| 2026-05-05 11:31 | 2.80804 | 101.68185 | 790 ft | 187 kts | 145° |
| 2026-05-05 11:31 | 2.79770 | 101.68891 | 604 ft | 175 kts | 146° |
| 2026-05-05 11:31 | 2.78786 | 101.69570 | 448 ft | 172 kts | 146° |
| 2026-05-05 11:31 | 2.77805 | 101.70219 | 227 ft | 170 kts | 146° |
| 2026-05-05 11:32 | 2.76827 | 101.70874 | 109 ft | 159 kts | 146° |
| 2026-05-05 11:32 | 2.75997 | 101.71431 | 71 ft | 115 kts | 148° |
| 2026-05-05 11:32 | 2.75614 | 101.71683 | 75 ft | 45 kts | 144° |
| 2026-05-05 11:32 | 2.75349 | 101.71859 | 72 ft | 44 kts | 147° |
| 2026-05-05 11:33 | 2.75111 | 101.72007 | 78 ft | 20 kts | 169° |
| 2026-05-05 11:33 | 2.75007 | 101.71933 | 74 ft | 20 kts | 235° |
| 2026-05-05 11:33 | 2.74925 | 101.71812 | 71 ft | 22 kts | 239° |
| 2026-05-05 11:33 | 2.74854 | 101.71708 | 74 ft | 9 kts | 233° |
| 2026-05-05 11:34 | 2.74850 | 101.71675 | 76 ft | 4 kts | 300° |
| 2026-05-05 11:34 | 2.74877 | 101.71648 | 78 ft | 7 kts | 322° |
| 2026-05-05 11:34 | 2.74903 | 101.71630 | 78 ft | 0 kts | 327° |